createdAt,value
2023-02-11T00:00:19.525Z,24.33
2023-02-11T00:00:51.348Z,23.90
2023-02-11T00:01:29.055Z,27.33
2023-02-11T00:02:01.133Z,23.35
2023-02-11T00:02:33.432Z,26.67
2023-02-11T00:03:05.084Z,25.52
2023-02-11T00:03:37.494Z,25.13
2023-02-11T00:04:09.101Z,24.30
2023-02-11T00:04:40.661Z,24.48
2023-02-11T00:05:12.250Z,24.17
2023-02-11T00:05:43.886Z,24.02
2023-02-11T00:06:15.891Z,24.52
2023-02-11T00:06:47.411Z,23.88
2023-02-11T00:07:18.972Z,23.00
2023-02-11T00:07:50.565Z,22.45
2023-02-11T00:08:22.174Z,22.25
2023-02-11T00:08:54.186Z,23.50
2023-02-11T00:09:25.762Z,22.23
2023-02-11T00:09:57.287Z,22.10
2023-02-11T00:10:28.918Z,21.63
2023-02-11T00:11:00.499Z,21.92
2023-02-11T00:11:32.082Z,22.48
2023-02-11T00:12:03.877Z,22.83
2023-02-11T00:12:36.698Z,23.98
2023-02-11T00:13:08.273Z,23.48
2023-02-11T00:13:39.883Z,23.50
2023-02-11T00:14:11.857Z,21.27
2023-02-11T00:14:43.473Z,21.92
2023-02-11T00:15:15.135Z,22.73
2023-02-11T00:15:46.883Z,21.23
2023-02-11T00:16:21.242Z,21.15
2023-02-11T00:16:55.243Z,21.02
2023-02-11T00:17:26.844Z,22.35
2023-02-11T00:18:00.314Z,21.13
2023-02-11T00:18:32.414Z,20.27
2023-02-11T00:19:05.614Z,21.23
2023-02-11T00:19:37.218Z,21.77
2023-02-11T00:20:09.310Z,22.23
2023-02-11T00:20:41.313Z,21.77
2023-02-11T00:21:19.398Z,21.40
2023-02-11T00:21:50.949Z,21.38
2023-02-11T00:22:22.776Z,20.48
2023-02-11T00:22:54.351Z,21.35
2023-02-11T00:23:26.003Z,20.25
2023-02-11T00:23:59.677Z,21.35
2023-02-11T00:24:31.678Z,20.40
2023-02-11T00:25:03.697Z,19.67
2023-02-11T00:25:41.167Z,19.90
2023-02-11T00:26:20.459Z,20.00
2023-02-11T00:26:52.044Z,19.33
2023-02-11T00:27:23.635Z,20.40
2023-02-11T00:27:56.431Z,18.48
2023-02-11T00:28:28.289Z,19.75
2023-02-11T00:29:00.969Z,21.60
2023-02-11T00:29:37.262Z,19.38
2023-02-11T00:30:09.364Z,18.27
2023-02-11T00:30:41.436Z,20.25
2023-02-11T00:31:14.365Z,20.10
2023-02-11T00:31:46.065Z,18.95
2023-02-11T00:32:17.769Z,18.48
2023-02-11T00:32:49.326Z,18.60
2023-02-11T00:33:20.946Z,17.75
2023-02-11T00:33:52.898Z,18.88
2023-02-11T00:34:24.854Z,19.60
2023-02-11T00:34:56.408Z,17.88
2023-02-11T00:35:27.993Z,19.10
2023-02-11T00:36:04.335Z,19.77
2023-02-11T00:36:36.301Z,19.15
2023-02-11T00:37:07.945Z,19.08
2023-02-11T00:37:39.564Z,18.40
2023-02-11T00:38:11.265Z,17.48
2023-02-11T00:38:44.445Z,17.90
2023-02-11T00:39:16.003Z,19.35
2023-02-11T00:39:47.563Z,18.02
2023-02-11T00:40:19.150Z,16.90
2023-02-11T00:40:50.697Z,18.00
2023-02-11T00:41:23.016Z,18.75
2023-02-11T00:41:54.620Z,17.67
2023-02-11T00:42:26.190Z,17.83
2023-02-11T00:42:57.816Z,17.90
2023-02-11T00:43:29.430Z,18.73
2023-02-11T00:44:02.129Z,17.50
2023-02-11T00:44:33.760Z,18.83
2023-02-11T00:45:05.655Z,18.98
2023-02-11T00:45:37.270Z,17.08
2023-02-11T00:46:09.268Z,17.73
2023-02-11T00:46:40.958Z,17.00
2023-02-11T00:47:15.392Z,18.27
2023-02-11T00:47:51.509Z,18.15
2023-02-11T00:48:23.066Z,16.48
2023-02-11T00:48:58.015Z,17.23
2023-02-11T00:49:29.716Z,17.13
2023-02-11T00:50:01.954Z,17.10
2023-02-11T00:50:33.611Z,16.67
2023-02-11T00:51:05.588Z,16.00
2023-02-11T00:51:37.363Z,16.67
2023-02-11T00:52:08.969Z,18.38
2023-02-11T00:52:40.710Z,16.48
2023-02-11T00:53:13.115Z,15.52
2023-02-11T00:53:44.651Z,17.55
2023-02-11T00:54:16.214Z,16.58
2023-02-11T00:54:48.132Z,16.60
2023-02-11T00:55:19.828Z,18.13
2023-02-11T00:55:51.910Z,17.05
2023-02-11T00:56:23.924Z,15.27
2023-02-11T00:56:55.534Z,17.58
2023-02-11T00:57:29.334Z,17.08
2023-02-11T00:58:01.123Z,16.60
2023-02-11T00:58:32.724Z,16.80
2023-02-11T00:59:04.311Z,15.98
2023-02-11T00:59:36.048Z,16.27
2023-02-11T01:00:08.466Z,15.43
2023-02-11T01:00:40.394Z,15.63
2023-02-11T01:01:12.673Z,16.73
2023-02-11T01:01:44.409Z,16.00
2023-02-11T01:02:16.751Z,14.55
2023-02-11T01:02:48.296Z,14.77
2023-02-11T01:03:19.908Z,15.57
2023-02-11T01:03:51.657Z,14.82
2023-02-11T01:04:23.283Z,14.40
2023-02-11T01:04:58.514Z,14.82
2023-02-11T01:05:30.650Z,14.15
2023-02-11T01:06:02.542Z,13.70
2023-02-11T01:06:34.165Z,16.40
2023-02-11T01:07:05.746Z,15.68
2023-02-11T01:07:37.465Z,14.18
2023-02-11T01:08:09.351Z,13.15
2023-02-11T01:08:41.014Z,14.25
2023-02-11T01:09:13.095Z,13.45
2023-02-11T01:09:44.771Z,14.35
2023-02-11T01:10:16.533Z,13.68
2023-02-11T01:11:00.294Z,13.35
2023-02-11T01:11:31.879Z,13.65
2023-02-11T01:12:03.582Z,14.25
2023-02-11T01:12:36.482Z,13.65
2023-02-11T01:13:08.226Z,13.38
2023-02-11T01:13:39.895Z,12.98
2023-02-11T01:14:11.508Z,14.30
2023-02-11T01:14:43.817Z,13.48
2023-02-11T01:15:17.629Z,14.48
2023-02-11T01:15:49.695Z,14.35
2023-02-11T01:16:22.518Z,14.07
2023-02-11T01:16:54.215Z,13.73
2023-02-11T01:17:26.344Z,14.40
2023-02-11T01:17:58.038Z,14.50
2023-02-11T01:18:29.715Z,12.93
2023-02-11T01:19:01.385Z,12.10
2023-02-11T01:19:33.826Z,12.27
2023-02-11T01:20:07.786Z,12.18
2023-02-11T01:20:39.336Z,13.35
2023-02-11T01:21:11.226Z,11.70
2023-02-11T01:21:42.820Z,14.45
2023-02-11T01:22:14.447Z,13.48
2023-02-11T01:22:46.141Z,12.60
2023-02-11T01:23:20.270Z,11.95
2023-02-11T01:23:52.447Z,12.85
2023-02-11T01:24:24.106Z,13.13
2023-02-11T01:24:55.692Z,13.98
2023-02-11T01:25:27.377Z,13.27
2023-02-11T01:25:59.173Z,13.73
2023-02-11T01:26:33.700Z,13.00
2023-02-11T01:27:05.449Z,12.15
2023-02-11T01:27:37.471Z,12.88
2023-02-11T01:28:17.312Z,11.40
2023-02-11T01:28:48.951Z,12.45
2023-02-11T01:29:20.711Z,15.05
2023-02-11T01:29:52.267Z,12.90
2023-02-11T01:30:25.427Z,12.57
2023-02-11T01:30:57.165Z,13.77
2023-02-11T01:31:30.602Z,13.95
2023-02-11T01:32:02.329Z,11.70
2023-02-11T01:32:34.687Z,12.23
2023-02-11T01:33:06.792Z,11.70
2023-02-11T01:33:38.368Z,10.60
2023-02-11T01:34:11.115Z,13.30
2023-02-11T01:34:42.985Z,11.52
2023-02-11T01:35:14.610Z,12.93
2023-02-11T01:35:46.631Z,12.27
2023-02-11T01:36:18.180Z,13.32
2023-02-11T01:36:49.778Z,11.20
2023-02-11T01:37:21.462Z,11.65
2023-02-11T01:37:53.014Z,11.70
2023-02-11T01:38:25.990Z,12.60
2023-02-11T01:38:58.062Z,13.35
2023-02-11T01:39:33.558Z,12.75
2023-02-11T01:40:07.746Z,11.18
2023-02-11T01:40:39.565Z,12.32
2023-02-11T01:41:13.180Z,11.10
2023-02-11T01:41:44.799Z,13.32
2023-02-11T01:42:18.139Z,14.15
2023-02-11T01:42:51.106Z,11.57
2023-02-11T01:43:25.507Z,11.60
2023-02-11T01:43:57.115Z,10.82
2023-02-11T01:44:30.261Z,11.48
2023-02-11T01:45:04.356Z,11.70
2023-02-11T01:46:12.444Z,11.63
2023-02-11T01:46:44.482Z,11.35
2023-02-11T01:47:16.014Z,11.13
2023-02-11T01:47:47.553Z,13.00
2023-02-11T01:48:28.302Z,13.82
2023-02-11T01:49:04.712Z,11.95
2023-02-11T01:49:37.107Z,11.65
2023-02-11T01:50:08.876Z,11.27
2023-02-11T01:50:41.556Z,11.50
2023-02-11T01:51:24.207Z,10.80
2023-02-11T01:52:37.178Z,12.43
2023-02-11T01:53:28.427Z,10.00
2023-02-11T01:54:19.403Z,8.93
2023-02-11T01:55:16.157Z,9.38
2023-02-11T01:56:06.412Z,9.13
2023-02-11T01:57:00.585Z,9.35
2023-02-11T01:57:34.320Z,10.00
2023-02-11T01:58:06.429Z,9.05
2023-02-11T01:58:39.627Z,9.75
2023-02-11T01:59:19.917Z,11.15
2023-02-11T02:00:02.320Z,10.50
2023-02-11T02:00:45.386Z,10.60
2023-02-11T02:01:22.379Z,10.77
2023-02-11T02:01:58.694Z,10.25
2023-02-11T02:02:37.492Z,11.05
2023-02-11T02:03:19.498Z,9.77
2023-02-11T02:03:55.313Z,8.95
2023-02-11T02:04:31.726Z,11.10
2023-02-11T02:05:36.249Z,9.73
2023-02-11T02:06:15.980Z,9.85
2023-02-11T02:06:56.235Z,10.52
2023-02-11T02:07:36.112Z,10.00
2023-02-11T02:08:21.914Z,11.65
2023-02-11T02:09:03.147Z,10.57
2023-02-11T02:09:39.498Z,9.85
2023-02-11T02:10:14.730Z,10.32
2023-02-11T02:10:49.226Z,9.27
2023-02-11T02:11:21.448Z,9.77
2023-02-11T02:11:53.031Z,10.32
2023-02-11T02:12:24.639Z,10.32
2023-02-11T02:12:56.452Z,9.82
2023-02-11T02:13:30.842Z,10.10
2023-02-11T02:14:02.404Z,11.20
2023-02-11T02:14:38.621Z,9.13
2023-02-11T02:15:23.963Z,9.48
2023-02-11T02:16:00.246Z,9.00
2023-02-11T02:16:34.464Z,10.10
2023-02-11T02:17:06.927Z,9.75
2023-02-11T02:17:44.853Z,9.35
2023-02-11T02:18:31.252Z,10.13
2023-02-11T02:19:20.072Z,9.30
2023-02-11T02:20:33.193Z,9.80
2023-02-11T02:21:28.903Z,8.40
2023-02-11T02:22:24.020Z,8.70
2023-02-11T02:23:17.099Z,8.60
2023-02-11T02:24:17.692Z,9.77
2023-02-11T02:25:11.791Z,8.48
2023-02-11T02:26:19.783Z,8.20
2023-02-11T02:27:28.565Z,8.52
2023-02-11T02:28:00.252Z,10.15
2023-02-11T02:28:50.868Z,9.10
2023-02-11T02:29:36.725Z,9.80
2023-02-11T02:30:24.491Z,8.88
2023-02-11T02:31:07.985Z,8.88
2023-02-11T02:31:48.650Z,10.55
2023-02-11T02:32:35.568Z,8.77
2023-02-11T02:33:25.537Z,8.55
2023-02-11T02:34:08.019Z,9.57
2023-02-11T02:34:54.080Z,11.13
2023-02-11T02:35:54.515Z,9.82
2023-02-11T02:36:56.314Z,10.10
2023-02-11T02:38:26.407Z,9.55
2023-02-11T02:39:06.265Z,8.90
2023-02-11T02:39:38.145Z,10.93
2023-02-11T02:40:17.382Z,8.38
2023-02-11T02:40:53.909Z,8.98
2023-02-11T02:41:29.712Z,10.48
2023-02-11T02:42:01.857Z,9.05
2023-02-11T02:42:33.701Z,9.23
2023-02-11T02:43:06.440Z,10.45
2023-02-11T02:43:45.237Z,10.05
2023-02-11T02:44:18.402Z,10.55
2023-02-11T02:44:50.910Z,12.25
2023-02-11T02:45:22.503Z,9.40
2023-02-11T02:45:54.174Z,9.80
2023-02-11T02:46:28.632Z,12.82
2023-02-11T02:47:00.249Z,10.45
2023-02-11T02:47:31.831Z,9.93
2023-02-11T02:48:03.709Z,10.00
2023-02-11T02:48:38.338Z,10.10
2023-02-11T02:49:14.560Z,9.65
2023-02-11T02:49:46.185Z,10.40
2023-02-11T02:50:21.579Z,9.20
2023-02-11T02:51:03.686Z,8.85
2023-02-11T02:51:56.908Z,9.85
2023-02-11T02:53:03.650Z,9.80
2023-02-11T02:53:53.560Z,8.30
2023-02-11T02:54:59.150Z,8.13
2023-02-11T02:55:44.463Z,8.85
2023-02-11T02:56:48.284Z,8.45
2023-02-11T02:57:41.594Z,9.27
2023-02-11T02:58:54.468Z,9.40
2023-02-11T02:59:52.226Z,9.20
2023-02-11T03:00:32.814Z,9.18
2023-02-11T03:01:31.048Z,10.52
2023-02-11T03:02:26.149Z,10.18
2023-02-11T03:03:36.181Z,8.98
2023-02-11T03:04:28.283Z,8.27
2023-02-11T03:05:16.428Z,8.90
2023-02-11T03:06:29.815Z,8.13
2023-02-11T03:07:18.593Z,9.40
2023-02-11T03:07:58.885Z,9.18
2023-02-11T03:08:41.421Z,9.98
2023-02-11T03:09:15.307Z,11.68
2023-02-11T03:09:58.641Z,8.27
2023-02-11T03:10:33.276Z,8.43
2023-02-11T03:11:05.644Z,8.82
2023-02-11T03:11:37.575Z,8.02
2023-02-11T03:12:11.188Z,9.45
2023-02-11T03:12:44.140Z,10.02
2023-02-11T03:13:17.388Z,8.50
2023-02-11T03:13:50.132Z,11.23
2023-02-11T03:14:22.571Z,9.65
2023-02-11T03:14:54.166Z,9.98
2023-02-11T03:15:28.663Z,9.30
2023-02-11T03:16:07.439Z,10.57
2023-02-11T03:16:39.707Z,10.15
2023-02-11T03:17:11.592Z,8.77
2023-02-11T03:17:46.324Z,10.23
2023-02-11T03:18:20.306Z,10.98
2023-02-11T03:19:13.617Z,8.50
2023-02-11T03:19:46.740Z,8.68
2023-02-11T03:20:20.210Z,9.93
2023-02-11T03:20:53.450Z,11.00
2023-02-11T03:21:25.908Z,9.52
2023-02-11T03:21:57.899Z,9.75
2023-02-11T03:22:36.781Z,9.50
2023-02-11T03:23:34.575Z,10.30
2023-02-11T03:24:10.145Z,9.68
2023-02-11T03:24:42.048Z,8.90
2023-02-11T03:25:14.216Z,10.43
2023-02-11T03:25:52.353Z,12.25
2023-02-11T03:26:29.232Z,8.98
2023-02-11T03:27:17.455Z,9.95
2023-02-11T03:28:05.871Z,9.80
2023-02-11T03:28:50.030Z,10.32
2023-02-11T03:29:42.610Z,10.20
2023-02-11T03:30:38.024Z,8.27
2023-02-11T03:31:36.501Z,8.77
2023-02-11T03:32:28.261Z,9.32
2023-02-11T03:33:22.955Z,8.30
2023-02-11T03:34:32.962Z,10.90
2023-02-11T03:35:15.690Z,8.30
2023-02-11T03:36:10.378Z,8.05
2023-02-11T03:36:50.080Z,8.80
2023-02-11T03:37:29.778Z,9.45
2023-02-11T03:38:05.758Z,8.90
2023-02-11T03:38:39.981Z,9.20
2023-02-11T03:39:14.944Z,8.50
2023-02-11T03:39:55.147Z,9.23
2023-02-11T03:40:29.709Z,10.45
2023-02-11T03:41:02.732Z,10.60
2023-02-11T03:41:35.068Z,8.18
2023-02-11T03:42:08.879Z,10.63
2023-02-11T03:42:43.819Z,8.75
2023-02-11T03:43:19.213Z,9.40
2023-02-11T03:43:53.819Z,9.38
2023-02-11T03:44:28.569Z,8.95
2023-02-11T03:45:04.922Z,10.45
2023-02-11T03:45:37.047Z,11.95
2023-02-11T03:46:10.200Z,9.15
2023-02-11T03:46:44.763Z,9.50
2023-02-11T03:47:19.778Z,10.23
2023-02-11T03:48:19.862Z,8.88
2023-02-11T03:48:57.502Z,7.95
2023-02-11T03:49:29.303Z,9.25
2023-02-11T03:50:03.708Z,9.90
2023-02-11T03:50:36.415Z,10.48
2023-02-11T03:51:09.977Z,9.40
2023-02-11T03:51:41.811Z,9.85
2023-02-11T03:52:14.089Z,9.25
2023-02-11T03:52:46.530Z,10.55
2023-02-11T03:53:20.406Z,8.90
2023-02-11T03:53:53.703Z,9.23
2023-02-11T03:54:29.541Z,9.20
2023-02-11T03:55:01.830Z,10.57
2023-02-11T03:55:35.679Z,9.13
2023-02-11T03:56:10.464Z,8.77
2023-02-11T03:56:49.867Z,9.20
2023-02-11T03:57:21.522Z,9.63
2023-02-11T03:57:53.177Z,9.43
2023-02-11T03:58:24.907Z,10.23
2023-02-11T03:58:56.501Z,10.73
2023-02-11T03:59:28.384Z,9.63
2023-02-11T04:00:00.353Z,11.10
2023-02-11T04:00:33.682Z,9.43
2023-02-11T04:01:08.926Z,11.18
2023-02-11T04:01:40.893Z,8.38
2023-02-11T04:02:12.537Z,11.40
2023-02-11T04:02:45.823Z,10.55
2023-02-11T04:03:19.130Z,8.82
2023-02-11T04:03:50.729Z,10.93
2023-02-11T04:04:22.343Z,11.18
2023-02-11T04:04:53.916Z,10.25
2023-02-11T04:05:25.826Z,9.50
2023-02-11T04:05:57.367Z,9.50
2023-02-11T04:06:28.911Z,9.20
2023-02-11T04:07:00.452Z,11.13
2023-02-11T04:07:32.418Z,10.25
2023-02-11T04:08:04.076Z,9.68
2023-02-11T04:08:37.251Z,8.52
2023-02-11T04:09:09.947Z,10.10
2023-02-11T04:09:41.627Z,10.32
2023-02-11T04:10:13.469Z,8.75
2023-02-11T04:10:45.006Z,9.52
2023-02-11T04:11:16.691Z,9.85
2023-02-11T04:11:48.232Z,10.57
2023-02-11T04:12:20.021Z,10.13
2023-02-11T04:12:51.622Z,11.07
2023-02-11T04:13:23.232Z,10.13
2023-02-11T04:13:54.909Z,9.18
2023-02-11T04:14:26.507Z,10.43
2023-02-11T04:14:58.318Z,9.15
2023-02-11T04:15:30.006Z,11.30
2023-02-11T04:16:01.597Z,10.52
2023-02-11T04:16:33.231Z,10.23
2023-02-11T04:17:05.123Z,10.07
2023-02-11T04:17:37.278Z,10.10
2023-02-11T04:18:08.828Z,10.20
2023-02-11T04:18:40.651Z,10.70
2023-02-11T04:19:12.186Z,10.80
2023-02-11T04:19:43.865Z,10.45
2023-02-11T04:20:15.421Z,10.07
2023-02-11T04:20:47.124Z,10.73
2023-02-11T04:21:18.917Z,10.73
2023-02-11T04:21:50.618Z,10.32
2023-02-11T04:22:22.166Z,9.55
2023-02-11T04:22:53.718Z,10.35
2023-02-11T04:23:25.311Z,10.95
2023-02-11T04:23:56.902Z,10.50
2023-02-11T04:24:29.834Z,9.43
2023-02-11T04:25:01.355Z,11.55
2023-02-11T04:25:32.923Z,10.65
2023-02-11T04:26:04.664Z,11.85
2023-02-11T04:26:36.283Z,11.27
2023-02-11T04:27:09.679Z,10.85
2023-02-11T04:27:41.309Z,9.88
2023-02-11T04:28:13.329Z,11.88
2023-02-11T04:28:44.860Z,8.88
2023-02-11T04:29:16.512Z,10.95
2023-02-11T04:29:48.325Z,10.07
2023-02-11T04:30:19.941Z,10.98
2023-02-11T04:30:51.669Z,11.23
2023-02-11T04:31:23.470Z,11.65
2023-02-11T04:31:55.412Z,10.55
2023-02-11T04:32:26.961Z,12.57
2023-02-11T04:32:58.962Z,10.82
2023-02-11T04:33:30.492Z,11.35
2023-02-11T04:34:02.029Z,9.85
2023-02-11T04:34:33.628Z,12.10
2023-02-11T04:35:05.874Z,9.98
2023-02-11T04:35:37.445Z,11.40
2023-02-11T04:36:09.224Z,11.77
2023-02-11T04:36:41.090Z,10.57
2023-02-11T04:37:12.786Z,11.00
2023-02-11T04:37:44.352Z,11.57
2023-02-11T04:38:16.129Z,11.18
2023-02-11T04:38:47.781Z,11.45
2023-02-11T04:39:19.419Z,11.02
2023-02-11T04:39:50.994Z,13.73
2023-02-11T04:40:22.515Z,12.27
2023-02-11T04:40:54.104Z,11.77
2023-02-11T04:41:25.766Z,12.48
2023-02-11T04:41:57.288Z,11.00
2023-02-11T04:42:29.007Z,11.68
2023-02-11T04:43:00.586Z,11.73
2023-02-11T04:43:32.195Z,10.52
2023-02-11T04:44:04.247Z,10.48
2023-02-11T04:44:35.790Z,11.02
2023-02-11T04:45:07.874Z,10.65
2023-02-11T04:45:39.483Z,12.38
2023-02-11T04:46:11.167Z,12.23
2023-02-11T04:46:42.768Z,12.43
2023-02-11T04:47:15.382Z,13.38
2023-02-11T04:47:47.001Z,12.65
2023-02-11T04:48:18.570Z,12.30
2023-02-11T04:48:50.329Z,11.68
2023-02-11T04:49:21.905Z,11.68
2023-02-11T04:49:53.470Z,13.50
2023-02-11T04:50:25.595Z,12.32
2023-02-11T04:50:57.145Z,10.90
2023-02-11T04:51:28.725Z,13.18
2023-02-11T04:52:00.397Z,11.25
2023-02-11T04:52:31.943Z,11.88
2023-02-11T04:53:03.548Z,11.43
2023-02-11T04:53:35.186Z,12.43
2023-02-11T04:54:06.793Z,12.88
2023-02-11T04:54:39.849Z,12.82
2023-02-11T04:55:11.594Z,13.38
2023-02-11T04:55:43.190Z,12.40
2023-02-11T04:56:15.350Z,14.32
2023-02-11T04:56:46.976Z,14.20
2023-02-11T04:57:18.534Z,13.10
2023-02-11T04:57:50.105Z,13.07
2023-02-11T04:58:21.688Z,13.93
2023-02-11T04:58:53.219Z,13.63
2023-02-11T04:59:25.059Z,14.32
2023-02-11T04:59:56.603Z,12.77
2023-02-11T05:00:28.129Z,14.57
2023-02-11T05:01:10.167Z,16.13
2023-02-11T05:01:41.910Z,14.32
2023-02-11T05:02:13.561Z,13.65
2023-02-11T05:02:45.097Z,13.27
2023-02-11T05:03:16.756Z,14.23
2023-02-11T05:03:48.359Z,15.15
2023-02-11T05:04:20.057Z,15.18
2023-02-11T05:04:51.641Z,15.30
2023-02-11T05:05:23.203Z,16.85
2023-02-11T05:05:56.285Z,14.95
2023-02-11T05:06:27.983Z,16.83
2023-02-11T05:06:59.589Z,16.75
2023-02-11T05:07:31.160Z,16.27
2023-02-11T05:08:02.808Z,17.08
2023-02-11T05:08:34.402Z,17.85
2023-02-11T05:09:05.969Z,17.70
2023-02-11T05:09:37.570Z,16.58
2023-02-11T05:10:09.271Z,17.65
2023-02-11T05:10:40.961Z,17.23
2023-02-11T05:11:17.310Z,17.00
2023-02-11T05:11:49.702Z,16.58
2023-02-11T05:12:21.847Z,17.30
2023-02-11T05:12:55.709Z,18.73
2023-02-11T05:13:28.338Z,18.05
2023-02-11T05:14:00.015Z,16.75
2023-02-11T05:14:32.403Z,17.38
2023-02-11T05:15:04.341Z,18.17
2023-02-11T05:15:35.864Z,17.85
2023-02-11T05:16:07.475Z,17.80
2023-02-11T05:16:39.137Z,16.98
2023-02-11T05:17:10.790Z,18.60
2023-02-11T05:17:42.288Z,20.15
2023-02-11T05:18:17.108Z,19.63
2023-02-11T05:18:52.446Z,18.48
2023-02-11T05:19:24.702Z,18.08
2023-02-11T05:19:56.305Z,17.33
2023-02-11T05:20:27.850Z,19.75
2023-02-11T05:20:59.470Z,19.20
2023-02-11T05:21:31.196Z,19.65
2023-02-11T05:22:03.738Z,18.83
2023-02-11T05:22:35.428Z,19.00
2023-02-11T05:23:07.002Z,20.27
2023-02-11T05:23:39.339Z,19.30
2023-02-11T05:24:10.902Z,17.95
2023-02-11T05:24:42.463Z,19.50
2023-02-11T05:25:14.292Z,18.55
2023-02-11T05:25:45.825Z,19.75
2023-02-11T05:26:17.849Z,19.75
2023-02-11T05:26:49.551Z,19.52
2023-02-11T05:27:21.089Z,19.17
2023-02-11T05:27:52.700Z,18.23
2023-02-11T05:28:24.417Z,18.15
2023-02-11T05:28:56.352Z,19.88
2023-02-11T05:29:28.348Z,19.98
2023-02-11T05:29:59.938Z,19.33
2023-02-11T05:30:32.063Z,18.13
2023-02-11T05:31:04.044Z,21.02
2023-02-11T05:31:35.668Z,20.00
2023-02-11T05:32:09.019Z,20.15
2023-02-11T05:32:40.789Z,19.80
2023-02-11T05:33:12.337Z,18.42
2023-02-11T05:33:43.929Z,22.23
2023-02-11T05:34:15.957Z,20.67
2023-02-11T05:34:47.508Z,19.98
2023-02-11T05:35:19.185Z,20.02
2023-02-11T05:35:51.005Z,22.65
2023-02-11T05:36:23.203Z,20.05
2023-02-11T05:36:54.959Z,20.10
2023-02-11T05:37:26.626Z,19.80
2023-02-11T05:37:58.170Z,21.85
2023-02-11T05:38:29.806Z,21.08
2023-02-11T05:39:01.325Z,21.02
2023-02-11T05:39:33.849Z,20.58
2023-02-11T05:40:06.346Z,20.45
2023-02-11T05:40:38.153Z,18.70
2023-02-11T05:41:10.520Z,22.15
2023-02-11T05:41:42.088Z,19.63
2023-02-11T05:42:14.008Z,21.90
2023-02-11T05:42:45.640Z,21.45
2023-02-11T05:43:17.169Z,21.10
2023-02-11T05:43:52.661Z,20.13
2023-02-11T05:44:24.252Z,22.15
2023-02-11T05:44:55.820Z,22.92
2023-02-11T05:45:27.424Z,21.35
2023-02-11T05:45:59.109Z,22.35
2023-02-11T05:46:30.750Z,22.20
2023-02-11T05:47:02.340Z,23.15
2023-02-11T05:47:34.150Z,22.88
2023-02-11T05:48:05.798Z,21.80
2023-02-11T05:48:37.312Z,24.23
2023-02-11T05:49:09.123Z,22.17
2023-02-11T05:49:40.775Z,21.52
2023-02-11T05:50:12.356Z,23.63
2023-02-11T05:50:44.043Z,21.63
2023-02-11T05:51:15.607Z,22.50
2023-02-11T05:51:47.167Z,21.73
2023-02-11T05:52:19.271Z,24.55
2023-02-11T05:52:50.861Z,23.42
2023-02-11T05:53:22.745Z,22.73
2023-02-11T05:53:54.349Z,21.85
2023-02-11T05:54:26.270Z,23.27
2023-02-11T05:54:57.830Z,22.77
2023-02-11T05:55:29.418Z,23.83
2023-02-11T05:56:01.358Z,22.45
2023-02-11T05:56:33.056Z,23.65
2023-02-11T05:57:04.658Z,23.13
2023-02-11T05:57:36.269Z,22.80
2023-02-11T05:58:09.603Z,24.65
2023-02-11T05:58:41.384Z,23.17
2023-02-11T05:59:15.546Z,22.88
2023-02-11T05:59:47.130Z,24.83
2023-02-11T06:00:19.014Z,23.35
2023-02-11T06:00:50.567Z,24.55
2023-02-11T06:01:22.539Z,23.50
2023-02-11T06:01:54.056Z,24.25
2023-02-11T06:02:25.738Z,22.77
2023-02-11T06:02:57.449Z,23.23
2023-02-11T06:03:29.033Z,25.48
2023-02-11T06:04:01.140Z,23.50
2023-02-11T06:04:32.859Z,25.05
2023-02-11T06:05:04.946Z,22.77
2023-02-11T06:05:36.573Z,23.85
2023-02-11T06:06:12.255Z,23.77
2023-02-11T06:06:43.854Z,24.50
2023-02-11T06:07:15.411Z,24.45
2023-02-11T06:07:47.005Z,23.80
2023-02-11T06:08:18.574Z,24.83
2023-02-11T06:08:50.193Z,24.05
2023-02-11T06:09:21.895Z,25.48
2023-02-11T06:09:53.447Z,25.40
2023-02-11T06:10:24.990Z,23.95
2023-02-11T06:10:56.558Z,25.20
2023-02-11T06:11:28.138Z,24.17
2023-02-11T06:11:59.688Z,25.10
2023-02-11T06:12:31.225Z,24.20
2023-02-11T06:13:05.103Z,26.50
2023-02-11T06:13:36.645Z,25.60
2023-02-11T06:14:08.253Z,25.73
2023-02-11T06:14:40.042Z,25.83
2023-02-11T06:15:11.757Z,23.80
2023-02-11T06:15:43.276Z,24.23
2023-02-11T06:16:14.947Z,25.17
2023-02-11T06:16:46.584Z,25.52
2023-02-11T06:17:18.166Z,24.65
2023-02-11T06:17:49.697Z,23.48
2023-02-11T06:18:21.218Z,25.50
2023-02-11T06:18:52.781Z,24.75
2023-02-11T06:19:24.318Z,25.95
2023-02-11T06:19:55.936Z,25.00
2023-02-11T06:20:27.550Z,25.95
2023-02-11T06:21:00.232Z,23.80
2023-02-11T06:21:42.870Z,26.50
2023-02-11T06:22:15.594Z,24.15
2023-02-11T06:22:47.398Z,26.08
2023-02-11T06:23:18.929Z,25.88
2023-02-11T06:23:50.470Z,24.63
2023-02-11T06:24:47.742Z,27.35
2023-02-11T06:25:13.822Z,23.65
2023-02-11T06:25:45.363Z,24.08
2023-02-11T06:26:20.232Z,24.33
2023-02-11T06:26:51.855Z,23.55
2023-02-11T06:27:23.540Z,23.42
2023-02-11T06:27:55.267Z,24.50
2023-02-11T06:28:28.363Z,24.30
2023-02-11T06:29:00.679Z,26.98
2023-02-11T06:29:32.781Z,24.42
2023-02-11T06:30:06.325Z,24.27
2023-02-11T06:30:38.260Z,26.27
2023-02-11T06:31:10.381Z,24.92
2023-02-11T06:31:42.155Z,25.52
2023-02-11T06:32:36.905Z,27.00
2023-02-11T06:33:05.360Z,24.35
2023-02-11T06:33:37.141Z,24.45
2023-02-11T06:34:09.746Z,25.00
2023-02-11T06:34:41.337Z,25.30
2023-02-11T06:35:14.377Z,25.52
2023-02-11T06:35:45.924Z,25.65
2023-02-11T06:36:19.316Z,24.40
2023-02-11T06:36:50.853Z,26.05
2023-02-11T06:37:22.455Z,25.77
2023-02-11T06:37:54.614Z,24.73
2023-02-11T06:38:26.188Z,24.92
2023-02-11T06:38:57.707Z,25.40
2023-02-11T06:39:29.348Z,26.77
2023-02-11T06:40:00.896Z,26.23
2023-02-11T06:40:32.483Z,24.60
2023-02-11T06:41:04.194Z,24.40
2023-02-11T06:41:35.793Z,25.48
2023-02-11T06:42:08.061Z,24.25
2023-02-11T06:42:39.733Z,26.25
2023-02-11T06:43:11.331Z,24.92
2023-02-11T06:43:42.969Z,26.58
2023-02-11T06:44:14.518Z,25.45
2023-02-11T06:44:46.070Z,28.63
2023-02-11T06:45:18.134Z,24.33
2023-02-11T06:45:54.414Z,26.13
2023-02-11T06:46:26.029Z,26.13
2023-02-11T06:46:57.586Z,28.42
2023-02-11T06:47:29.121Z,26.50
2023-02-11T06:48:00.661Z,26.30
2023-02-11T06:48:32.335Z,27.25
2023-02-11T06:49:03.871Z,24.67
2023-02-11T06:49:35.402Z,25.55
2023-02-11T06:50:08.820Z,25.73
2023-02-11T06:50:40.391Z,27.33
2023-02-11T06:51:13.753Z,30.35
2023-02-11T06:51:45.280Z,26.13
2023-02-11T06:52:17.302Z,26.63
2023-02-11T06:52:48.907Z,26.30
2023-02-11T06:53:20.436Z,28.65
2023-02-11T06:53:52.582Z,26.13
2023-02-11T06:54:24.390Z,27.70
2023-02-11T06:54:56.036Z,26.13
2023-02-11T06:55:27.676Z,27.60
2023-02-11T06:56:04.405Z,26.77
2023-02-11T06:56:36.896Z,26.40
2023-02-11T06:57:08.434Z,26.88
2023-02-11T06:57:40.220Z,27.17
2023-02-11T06:58:11.832Z,26.65
2023-02-11T06:58:43.989Z,26.98
2023-02-11T06:59:17.485Z,27.02
2023-02-11T06:59:49.140Z,27.23
2023-02-11T07:00:20.847Z,27.30
2023-02-11T07:00:52.442Z,27.63
2023-02-11T07:01:25.583Z,27.45
2023-02-11T07:01:57.353Z,26.80
2023-02-11T07:02:29.034Z,27.00
2023-02-11T07:03:00.739Z,27.83
2023-02-11T07:03:35.106Z,28.00
2023-02-11T07:04:08.215Z,26.20
2023-02-11T07:04:39.875Z,25.13
2023-02-11T07:05:12.650Z,25.02
2023-02-11T07:05:44.242Z,29.10
2023-02-11T07:06:21.392Z,25.98
2023-02-11T07:06:52.975Z,29.08
2023-02-11T07:07:24.530Z,27.52
2023-02-11T07:07:56.127Z,27.80
2023-02-11T07:08:27.798Z,27.17
2023-02-11T07:08:59.350Z,26.38
2023-02-11T07:09:31.020Z,25.60
2023-02-11T07:10:04.213Z,27.58
2023-02-11T07:10:35.864Z,26.52
2023-02-11T07:11:15.213Z,27.40
2023-02-11T07:11:46.805Z,24.30
2023-02-11T07:12:18.335Z,24.65
2023-02-11T07:12:49.880Z,26.23
2023-02-11T07:13:21.415Z,25.23
2023-02-11T07:13:54.683Z,25.85
2023-02-11T07:14:26.283Z,26.80
2023-02-11T07:14:58.074Z,26.35
2023-02-11T07:15:29.798Z,26.58
2023-02-11T07:16:06.012Z,26.70
2023-02-11T07:16:38.488Z,27.90
2023-02-11T07:17:10.144Z,26.90
2023-02-11T07:17:41.722Z,24.80
2023-02-11T07:18:14.840Z,27.10
2023-02-11T07:18:47.268Z,26.10
2023-02-11T07:19:18.789Z,26.45
2023-02-11T07:19:50.310Z,27.50
2023-02-11T07:20:21.866Z,26.95
2023-02-11T07:20:53.416Z,26.02
2023-02-11T07:21:25.167Z,26.17
2023-02-11T07:21:56.692Z,26.92
2023-02-11T07:22:28.339Z,27.88
2023-02-11T07:23:00.194Z,25.65
2023-02-11T07:23:32.112Z,26.83
2023-02-11T07:24:10.671Z,29.80
2023-02-11T07:24:42.659Z,25.80
2023-02-11T07:25:14.226Z,25.38
2023-02-11T07:25:45.793Z,27.13
2023-02-11T07:26:21.438Z,25.23
2023-02-11T07:26:53.917Z,27.25
2023-02-11T07:27:25.471Z,27.05
2023-02-11T07:27:57.037Z,28.80